Ash Fork, Arizona
Current Conditions -  °F | °C
As of 7:53 AM on Sunday 21 Dec 2014 (Local Time) from KPRC Reporting Station
Clear Clear  
Wind Chill: 32°   Ceiling: Unl
Heat Index: 32°   Visibility: 10mi
Dew Point: 24°   Wind: 0mph
Humidity: 73%   Direction: NA
Pressure: 30.16"   Gusts: NA
Location:  35.23°N, 112.49°W
Report Text: KPRC 211453Z 00000KT 10SM CLR 00/M04 A3016 RMK AO2 SLP201 T00001044 53008
Loading
Personal Weather Stations






























Interactive Weather Map New forecast layout! Learn more

10-Day Weather Forecast

Advertisements
Track Severe Weather on mobile